Time;durP1;ratioP1;P1;durP2;ratioP2;P2;SDS_P1;SDS_P2;PMS_P1;PMS_P2;Temp;Humidity;BMP_temperature;BMP_pressure;BME280_temperature;BME280_humidity;BME280_pressure;Samples;Min_cycle;Max_cycle;Signal;HPM_P1;HPM_P2
2021/08/16 00:01:40;;;;;;;;;;;;;;;17.29;75.10;100891.72;5048016;28;20627;-58
2021/08/16 00:04:07;;;;;;;;;;;;;;;17.30;74.84;100893.41;5089151;28;19998;-59
2021/08/16 00:06:34;;;;;;;;;;;;;;;17.32;75.06;100889.66;5076182;28;19924;-58
2021/08/16 00:09:00;;;;;;;;;;;;;;;17.35;74.98;100892.00;5072611;28;19929;-58
2021/08/16 00:11:28;;;;;;;;;;;;;;;17.35;75.05;100884.03;5088398;28;20324;-59
2021/08/16 00:13:54;;;;;;;;;;;;;;;17.35;75.07;100880.53;5092223;28;19928;-59
2021/08/16 00:16:21;;;;;;;;;;;;;;;17.28;74.90;100882.94;5079311;28;20341;-58
2021/08/16 00:18:48;;;;;;;;;;;;;;;17.31;74.37;100884.47;5072041;28;19948;-48
2021/08/16 00:21:15;;;;;;;;;;;;;;;17.27;74.38;100875.94;5085882;28;20022;-51
2021/08/16 00:23:41;;;;;;;;;;;;;;;17.31;74.51;100873.84;5084661;28;20253;-47
2021/08/16 00:26:08;;;;;;;;;;;;;;;17.21;74.34;100864.06;5084410;28;19963;-46
2021/08/16 00:28:35;;;;;;;;;;;;;;;17.24;74.23;100869.09;5078949;28;19952;-48
2021/08/16 00:31:01;;;;;;;;;;;;;;;17.23;74.48;100872.75;5079383;28;19928;-45
2021/08/16 00:33:28;;;;;;;;;;;;;;;17.24;74.44;100874.41;5054139;28;19928;-47
2021/08/16 00:35:55;;;;;;;;;;;;;;;17.24;74.44;100862.94;5073129;28;19924;-46
2021/08/16 00:38:21;;;;;;;;;;;;;;;17.31;74.08;100864.03;5067729;28;19924;-47
2021/08/16 00:40:48;;;;;;;;;;;;;;;17.27;74.25;100872.44;5082476;28;19932;-47
2021/08/16 00:43:15;;;;;;;;;;;;;;;17.29;73.94;100866.03;5084385;28;20332;-46
2021/08/16 00:45:41;;;;;;;;;;;;;;;17.29;74.64;100870.47;5090309;28;19924;-48
2021/08/16 00:48:09;;;;;;;;;;;;;;;17.28;74.29;100867.00;5069957;28;19955;-49
2021/08/16 00:50:35;;;;;;;;;;;;;;;17.32;74.39;100863.06;5080264;28;20442;-50
2021/08/16 00:53:02;;;;;;;;;;;;;;;17.26;74.42;100865.44;5064174;28;20371;-51
2021/08/16 00:55:29;;;;;;;;;;;;;;;17.17;75.01;100861.84;5062578;28;19924;-47
2021/08/16 00:57:57;;;;;;;;;;;;;;;17.14;75.23;100870.94;5090676;28;19924;-47
2021/08/16 01:00:24;;;;;;;;;;;;;;;17.17;75.25;100862.66;5074497;28;19924;-46
2021/08/16 01:02:51;;;;;;;;;;;;;;;17.25;75.07;100875.25;5091188;28;20380;-46
2021/08/16 01:05:17;;;;;;;;;;;;;;;17.26;74.82;100870.78;5076579;28;19960;-59
2021/08/16 01:07:45;;;;;;;;;;;;;;;17.16;75.25;100865.47;5064340;28;19928;-49
2021/08/16 01:10:12;;;;;;;;;;;;;;;17.22;75.27;100875.56;5075006;28;19978;-46
2021/08/16 01:12:39;;;;;;;;;;;;;;;17.21;75.28;100871.22;5074390;28;19925;-47
2021/08/16 01:15:06;;;;;;;;;;;;;;;17.21;75.48;100864.06;5041836;28;20319;-45
2021/08/16 01:17:33;;;;;;;;;;;;;;;17.26;75.56;100866.31;5084434;28;19946;-48
2021/08/16 01:20:04;;;;;;;;;;;;;;;17.24;75.42;100863.78;5088777;28;19987;-49
2021/08/16 01:22:31;;;;;;;;;;;;;;;17.28;75.42;100861.69;5092872;28;19969;-48
2021/08/16 01:24:57;;;;;;;;;;;;;;;17.30;75.68;100867.69;5057658;28;19924;-46
2021/08/16 01:27:24;;;;;;;;;;;;;;;17.29;75.74;100863.34;5068628;28;20748;-49
2021/08/16 01:29:51;;;;;;;;;;;;;;;17.28;75.46;100861.69;5089743;28;20617;-49
2021/08/16 01:32:17;;;;;;;;;;;;;;;17.27;75.80;100869.78;5049828;28;19955;-49
2021/08/16 01:34:44;;;;;;;;;;;;;;;17.23;75.67;100866.56;5055161;28;20362;-45
2021/08/16 01:37:10;;;;;;;;;;;;;;;17.24;75.86;100870.91;5075508;28;20399;-48
2021/08/16 01:39:37;;;;;;;;;;;;;;;17.11;76.60;100870.38;5090677;28;19924;-49
2021/08/16 01:42:04;;;;;;;;;;;;;;;17.11;76.55;100862.41;5046007;28;19986;-46
2021/08/16 01:44:30;;;;;;;;;;;;;;;17.13;76.27;100865.78;5074176;28;19924;-48
2021/08/16 01:46:57;;;;;;;;;;;;;;;17.20;76.48;100864.22;5066053;28;19924;-51
2021/08/16 01:49:24;;;;;;;;;;;;;;;17.22;76.25;100870.22;5090144;28;19931;-46
2021/08/16 01:51:51;;;;;;;;;;;;;;;17.25;76.46;100864.63;5054372;28;19968;-48
2021/08/16 01:54:17;;;;;;;;;;;;;;;17.24;76.43;100866.44;5069718;28;19925;-47
2021/08/16 01:56:44;;;;;;;;;;;;;;;17.28;76.06;100868.81;5059792;28;19951;-49
2021/08/16 01:59:11;;;;;;;;;;;;;;;17.26;76.22;100861.00;5088493;28;19924;-50
2021/08/16 02:01:37;;;;;;;;;;;;;;;17.25;76.32;100859.31;5082726;28;20375;-51
2021/08/16 02:04:04;;;;;;;;;;;;;;;17.17;76.67;100851.22;5035463;28;20356;-47
2021/08/16 02:06:31;;;;;;;;;;;;;;;17.16;76.55;100854.84;5068301;28;19927;-49
2021/08/16 02:08:58;;;;;;;;;;;;;;;17.17;76.61;100851.22;5077084;28;19929;-49
2021/08/16 02:11:24;;;;;;;;;;;;;;;17.28;76.47;100847.56;5083700;28;19932;-49
2021/08/16 02:13:51;;;;;;;;;;;;;;;17.29;76.44;100850.06;5094198;28;19924;-50
2021/08/16 02:16:18;;;;;;;;;;;;;;;17.24;76.56;100844.34;5077637;28;20398;-48
2021/08/16 02:18:44;;;;;;;;;;;;;;;17.25;76.70;100851.34;5063660;28;20039;-50
2021/08/16 02:21:11;;;;;;;;;;;;;;;17.23;76.77;100845.31;5082673;28;19925;-49
2021/08/16 02:23:38;;;;;;;;;;;;;;;17.27;77.07;100844.03;5089554;28;19925;-44
2021/08/16 02:26:04;;;;;;;;;;;;;;;17.31;76.64;100842.78;5057058;28;19978;-45
2021/08/16 02:28:32;;;;;;;;;;;;;;;17.29;77.06;100844.75;5071348;28;19928;-47
2021/08/16 02:30:58;;;;;;;;;;;;;;;17.28;77.16;100845.72;5076968;28;19944;-45
2021/08/16 02:33:25;;;;;;;;;;;;;;;17.28;77.35;100839.59;5077924;28;19982;-48
2021/08/16 02:35:52;;;;;;;;;;;;;;;17.30;77.15;100846.44;5085313;28;20253;-46
2021/08/16 02:38:18;;;;;;;;;;;;;;;17.27;77.43;100854.69;5084773;28;19924;-47
2021/08/16 02:40:45;;;;;;;;;;;;;;;17.31;77.51;100850.75;5075711;28;19953;-45
2021/08/16 02:43:12;;;;;;;;;;;;;;;17.20;77.96;100849.09;5074013;28;19928;-46
2021/08/16 02:45:38;;;;;;;;;;;;;;;17.24;77.85;100847.00;5077216;28;19989;-47
2021/08/16 02:48:05;;;;;;;;;;;;;;;17.25;78.27;100843.38;5070426;28;20435;-46
2021/08/16 02:50:31;;;;;;;;;;;;;;;17.25;77.90;100843.38;5078481;28;19925;-47
2021/08/16 02:52:58;;;;;;;;;;;;;;;17.30;77.52;100837.59;5087326;28;19969;-48
2021/08/16 02:55:25;;;;;;;;;;;;;;;17.30;77.94;100842.91;5058092;28;19928;-51
2021/08/16 02:57:52;;;;;;;;;;;;;;;17.24;78.06;100844.34;5084555;28;20440;-50
2021/08/16 03:00:19;;;;;;;;;;;;;;;17.22;78.21;100844.50;5091800;28;20394;-50
2021/08/16 03:02:46;;;;;;;;;;;;;;;17.23;77.95;100838.19;5068092;28;19924;-50
2021/08/16 03:05:13;;;;;;;;;;;;;;;17.23;78.12;100834.69;5087289;28;19928;-48
2021/08/16 03:07:40;;;;;;;;;;;;;;;17.27;77.95;100838.72;5062572;28;19924;-47
2021/08/16 03:10:08;;;;;;;;;;;;;;;17.22;78.25;100841.00;5074776;28;19977;-47
2021/08/16 03:12:34;;;;;;;;;;;;;;;17.21;78.36;100836.66;5064512;28;19928;-46
2021/08/16 03:15:01;;;;;;;;;;;;;;;17.19;78.56;100836.81;5093207;28;20018;-50
2021/08/16 03:17:28;;;;;;;;;;;;;;;17.17;78.90;100833.44;5088007;28;19924;-48
2021/08/16 03:19:54;;;;;;;;;;;;;;;17.18;78.64;100831.66;5090051;28;19994;-48
2021/08/16 03:22:21;;;;;;;;;;;;;;;17.16;79.22;100836.25;5083199;28;20458;-50
2021/08/16 03:24:48;;;;;;;;;;;;;;;17.20;78.91;100843.78;5072605;28;19970;-48
2021/08/16 03:27:14;;;;;;;;;;;;;;;17.25;78.79;100843.38;5091189;28;19928;-49
2021/08/16 03:29:41;;;;;;;;;;;;;;;17.19;79.14;100844.78;5067126;28;19925;-48
2021/08/16 03:32:08;;;;;;;;;;;;;;;17.23;78.94;100850.63;5086360;28;19931;-46
2021/08/16 03:34:35;;;;;;;;;;;;;;;17.22;79.08;100838.34;5067080;28;19990;-50
2021/08/16 03:37:02;;;;;;;;;;;;;;;17.18;79.41;100834.31;5063234;28;19925;-46
2021/08/16 03:39:29;;;;;;;;;;;;;;;17.20;79.14;100837.63;5087253;28;19928;-48
2021/08/16 03:41:55;;;;;;;;;;;;;;;17.10;79.78;100840.31;5082246;28;19978;-50
2021/08/16 03:44:22;;;;;;;;;;;;;;;17.17;79.18;100841.41;5085087;28;19924;-50
2021/08/16 03:46:49;;;;;;;;;;;;;;;17.17;79.58;100838.75;5088154;28;19924;-49
2021/08/16 03:49:15;;;;;;;;;;;;;;;17.17;79.44;100836.09;5059847;28;19976;-49
2021/08/16 03:51:42;;;;;;;;;;;;;;;17.12;79.58;100841.00;5069813;28;19985;-48
2021/08/16 03:54:08;;;;;;;;;;;;;;;17.18;79.26;100842.28;5074510;28;19931;-47
2021/08/16 03:56:35;;;;;;;;;;;;;;;17.15;79.32;100829.25;5072951;28;20264;-48
2021/08/16 03:59:01;;;;;;;;;;;;;;;17.00;80.00;100827.06;5080324;28;19924;-48
2021/08/16 04:01:28;;;;;;;;;;;;;;;17.08;79.60;100830.81;5050307;28;19973;-50
2021/08/16 04:03:55;;;;;;;;;;;;;;;16.99;79.95;100828.03;5078092;28;19932;-50
2021/08/16 04:06:22;;;;;;;;;;;;;;;17.01;79.72;100830.53;5092611;28;19924;-51
2021/08/16 04:08:48;;;;;;;;;;;;;;;17.07;79.57;100819.34;5084292;28;19924;-60
2021/08/16 04:11:15;;;;;;;;;;;;;;;17.07;79.67;100819.34;5092733;28;20382;-60
2021/08/16 04:13:42;;;;;;;;;;;;;;;17.10;79.29;100819.06;5061867;28;19932;-59
2021/08/16 04:16:08;;;;;;;;;;;;;;;17.12;79.39;100813.59;5086173;28;19931;-59
2021/08/16 04:18:36;;;;;;;;;;;;;;;17.08;79.51;100814.88;5062560;28;19928;-59
2021/08/16 04:21:02;;;;;;;;;;;;;;;17.08;79.54;100822.84;5066299;28;19970;-58
2021/08/16 04:23:29;;;;;;;;;;;;;;;17.05;79.43;100818.66;5078159;28;19924;-58
2021/08/16 04:25:56;;;;;;;;;;;;;;;17.06;79.50;100810.53;5063717;28;19924;-59
2021/08/16 04:28:22;;;;;;;;;;;;;;;17.05;79.27;100811.50;5058285;28;19924;-58
2021/08/16 04:30:49;;;;;;;;;;;;;;;17.06;79.65;100812.38;5094272;28;19931;-59
2021/08/16 04:33:17;;;;;;;;;;;;;;;16.98;79.90;100818.38;5095537;28;19928;-58
2021/08/16 04:35:44;;;;;;;;;;;;;;;16.93;80.41;100812.66;5080385;28;19925;-58
2021/08/16 04:38:11;;;;;;;;;;;;;;;16.88;80.12;100815.72;5090906;28;20008;-59
2021/08/16 04:40:37;;;;;;;;;;;;;;;16.92;80.46;100820.75;5058684;28;19928;-59
2021/08/16 04:43:04;;;;;;;;;;;;;;;16.79;80.71;100810.41;5055632;28;19924;-59
2021/08/16 04:45:31;;;;;;;;;;;;;;;16.80;80.97;100812.94;5075753;28;19977;-59
2021/08/16 04:47:57;;;;;;;;;;;;;;;16.89;80.58;100808.59;5074529;28;20287;-59
2021/08/16 04:50:24;;;;;;;;;;;;;;;16.86;80.56;100801.72;5083347;28;19924;-59
2021/08/16 04:52:51;;;;;;;;;;;;;;;16.87;81.04;100798.09;5081645;28;19970;-59
2021/08/16 04:55:18;;;;;;;;;;;;;;;16.87;80.86;100800.75;5088452;28;19971;-59
2021/08/16 04:57:44;;;;;;;;;;;;;;;16.88;81.04;100794.47;5075450;28;19924;-58
2021/08/16 05:00:12;;;;;;;;;;;;;;;16.89;80.89;100795.31;5075286;28;20370;-58
2021/08/16 05:02:39;;;;;;;;;;;;;;;16.87;81.13;100797.25;5057007;28;19947;-58
2021/08/16 05:05:14;;;;;;;;;;;;;;;16.91;80.90;100793.38;5072780;28;20757;-59
2021/08/16 05:07:48;;;;;;;;;;;;;;;16.95;80.68;100794.75;5086876;28;20413;-58
2021/08/16 05:10:15;;;;;;;;;;;;;;;16.98;80.85;100796.31;5086027;28;19990;-49
2021/08/16 05:12:42;;;;;;;;;;;;;;;16.95;81.13;100793.94;5069085;28;19970;-47
2021/08/16 05:15:09;;;;;;;;;;;;;;;16.96;81.13;100799.09;5084031;28;19931;-48
2021/08/16 05:17:36;;;;;;;;;;;;;;;16.94;80.88;100800.22;5075990;28;19936;-47
2021/08/16 05:20:03;;;;;;;;;;;;;;;17.01;81.29;100798.66;5084285;28;20295;-48
2021/08/16 05:22:30;;;;;;;;;;;;;;;17.02;81.32;100805.66;5087507;28;19928;-49
2021/08/16 05:24:57;;;;;;;;;;;;;;;17.06;80.89;100799.91;5089663;28;19932;-48
2021/08/16 05:27:23;;;;;;;;;;;;;;;17.04;80.97;100801.88;5092689;28;20296;-46
2021/08/16 05:29:50;;;;;;;;;;;;;;;17.09;80.95;100800.63;5075118;28;19970;-48
2021/08/16 05:32:17;;;;;;;;;;;;;;;17.10;80.84;100808.44;5075050;28;20298;-50
2021/08/16 05:34:44;;;;;;;;;;;;;;;17.18;80.80;100797.94;5077352;28;19924;-49
2021/08/16 05:37:10;;;;;;;;;;;;;;;17.14;80.59;100799.19;5090620;28;19928;-44
2021/08/16 05:39:37;;;;;;;;;;;;;;;17.12;80.61;100795.81;5080882;28;20367;-50
2021/08/16 05:42:04;;;;;;;;;;;;;;;17.19;80.40;100796.09;5066320;28;20500;-50
2021/08/16 05:44:31;;;;;;;;;;;;;;;17.21;80.71;100796.81;5086546;28;20489;-51
2021/08/16 05:46:57;;;;;;;;;;;;;;;17.22;80.71;100793.16;5073393;28;19924;-48
2021/08/16 05:49:24;;;;;;;;;;;;;;;17.21;80.56;100794.97;5083528;28;19928;-50
2021/08/16 05:51:51;;;;;;;;;;;;;;;17.20;80.47;100787.97;5086708;28;19925;-48
2021/08/16 05:54:17;;;;;;;;;;;;;;;17.26;80.41;100786.59;5092352;28;19924;-49
2021/08/16 05:56:44;;;;;;;;;;;;;;;17.32;80.15;100790.47;5062435;28;19932;-46
2021/08/16 05:59:11;;;;;;;;;;;;;;;17.32;80.19;100791.31;5079139;28;19931;-50
2021/08/16 06:01:39;;;;;;;;;;;;;;;17.36;80.65;100795.34;5078234;28;19924;-46
2021/08/16 06:04:06;;;;;;;;;;;;;;;17.46;79.95;100791.81;5080501;28;20442;-50
2021/08/16 06:06:33;;;;;;;;;;;;;;;17.39;80.26;100794.22;5065895;28;19989;-48
2021/08/16 06:09:00;;;;;;;;;;;;;;;17.42;79.73;100793.09;5080116;28;19928;-46
2021/08/16 06:11:27;;;;;;;;;;;;;;;17.45;79.56;100790.13;5080854;28;19925;-47
2021/08/16 06:13:53;;;;;;;;;;;;;;;17.37;80.20;100785.56;5055162;28;20296;-47
2021/08/16 06:16:20;;;;;;;;;;;;;;;17.45;79.76;100784.81;5074909;28;19933;-46
2021/08/16 06:18:47;;;;;;;;;;;;;;;17.44;80.09;100789.31;5074066;28;19925;-47
2021/08/16 06:21:14;;;;;;;;;;;;;;;17.49;79.91;100783.53;5072394;28;19948;-46
2021/08/16 06:23:40;;;;;;;;;;;;;;;17.52;79.70;100785.91;5070754;28;19924;-46
2021/08/16 06:26:10;;;;;;;;;;;;;;;17.55;79.65;100802.41;5080920;28;19924;-45
2021/08/16 06:28:40;;;;;;;;;;;;;;;17.51;79.91;100794.88;5093452;28;20294;-46
2021/08/16 06:31:07;;;;;;;;;;;;;;;17.57;79.89;100796.94;5078332;28;19928;-46
2021/08/16 06:33:37;;;;;;;;;;;;;;;17.61;80.13;100789.50;5055426;28;19928;-49
2021/08/16 06:36:05;;;;;;;;;;;;;;;17.66;80.48;100803.22;5080332;28;19928;-49
2021/08/16 06:38:33;;;;;;;;;;;;;;;17.58;81.13;100794.13;5071474;28;21359;-49
2021/08/16 06:41:00;;;;;;;;;;;;;;;17.60;81.85;100801.13;5086886;28;19924;-50
2021/08/16 06:43:27;;;;;;;;;;;;;;;17.62;82.73;100799.19;5066623;28;19925;-50
2021/08/16 06:45:54;;;;;;;;;;;;;;;17.62;82.90;100796.50;5057014;28;20413;-58
2021/08/16 06:48:21;;;;;;;;;;;;;;;17.31;84.91;100808.22;5093839;28;19928;-57
2021/08/16 06:50:48;;;;;;;;;;;;;;;17.31;86.00;100813.53;5090596;28;19924;-58
2021/08/16 06:53:15;;;;;;;;;;;;;;;17.25;86.65;100803.50;5081787;28;19925;-56
2021/08/16 06:55:42;;;;;;;;;;;;;;;17.21;86.87;100816.22;5093564;28;19924;-57
2021/08/16 06:58:09;;;;;;;;;;;;;;;17.14;87.67;100808.97;5091866;28;20346;-56
2021/08/16 07:00:38;;;;;;;;;;;;;;;17.18;87.90;100805.06;5083952;28;19925;-56
2021/08/16 07:03:05;;;;;;;;;;;;;;;17.18;87.93;100811.22;5063804;28;19929;-57
2021/08/16 07:05:32;;;;;;;;;;;;;;;17.10;88.30;100812.91;5077228;28;20698;-57
2021/08/16 07:07:58;;;;;;;;;;;;;;;17.16;88.78;100807.84;5059525;28;19924;-57
2021/08/16 07:10:25;;;;;;;;;;;;;;;17.05;88.86;100808.84;5063313;28;19989;-57
2021/08/16 07:12:52;;;;;;;;;;;;;;;17.10;88.93;100807.59;5081906;28;20371;-57
2021/08/16 07:15:18;;;;;;;;;;;;;;;16.95;88.57;100818.66;5082504;28;20394;-57
2021/08/16 07:17:45;;;;;;;;;;;;;;;16.85;89.73;100815.16;5077585;28;20306;-57
2021/08/16 07:20:12;;;;;;;;;;;;;;;16.94;89.68;100805.53;5081417;28;19924;-56
2021/08/16 07:22:39;;;;;;;;;;;;;;;16.96;90.10;100822.16;5083062;28;20279;-57
2021/08/16 07:25:06;;;;;;;;;;;;;;;16.98;90.59;100820.22;5079925;28;20006;-57
2021/08/16 07:27:32;;;;;;;;;;;;;;;17.03;90.58;100831.25;5082366;28;19928;-57
2021/08/16 07:29:59;;;;;;;;;;;;;;;17.06;90.39;100839.75;5083459;28;19924;-55
2021/08/16 07:32:26;;;;;;;;;;;;;;;17.00;91.27;100840.34;5081523;28;19932;-54
2021/08/16 07:34:52;;;;;;;;;;;;;;;17.03;91.04;100836.56;5055881;28;19947;-55
2021/08/16 07:37:19;;;;;;;;;;;;;;;17.00;91.19;100832.38;5039310;28;19926;-55
2021/08/16 07:39:46;;;;;;;;;;;;;;;17.03;91.88;100840.03;5014169;28;19925;-54
2021/08/16 07:42:13;;;;;;;;;;;;;;;16.96;91.40;100838.09;5024149;28;19979;-55
2021/08/16 07:44:39;;;;;;;;;;;;;;;17.01;92.21;100849.13;5014259;28;19925;-54
2021/08/16 07:47:06;;;;;;;;;;;;;;;16.99;91.82;100849.28;5032989;28;19932;-56
2021/08/16 07:49:33;;;;;;;;;;;;;;;16.96;91.71;100844.25;5023737;28;20008;-56
2021/08/16 07:52:01;;;;;;;;;;;;;;;17.00;91.59;100855.41;5020406;28;19933;-56
2021/08/16 07:54:28;;;;;;;;;;;;;;;17.03;91.82;100858.66;5022767;28;19975;-57
2021/08/16 07:56:54;;;;;;;;;;;;;;;17.03;91.38;100855.16;5016808;28;19933;-57
2021/08/16 07:59:21;;;;;;;;;;;;;;;17.08;90.29;100863.53;5024818;28;19925;-57
2021/08/16 08:01:49;;;;;;;;;;;;;;;17.18;90.61;100866.19;5021081;28;19999;-57
2021/08/16 08:04:16;;;;;;;;;;;;;;;17.16;91.34;100858.34;5030567;28;19975;-57
2021/08/16 08:06:42;;;;;;;;;;;;;;;17.20;90.09;100862.38;5032546;28;20265;-57
2021/08/16 08:09:09;;;;;;;;;;;;;;;17.27;90.21;100864.47;5027448;28;19929;-57
2021/08/16 08:11:35;;;;;;;;;;;;;;;17.21;89.06;100868.56;5018839;28;20317;-44
2021/08/16 08:14:02;;;;;;;;;;;;;;;17.32;90.30;100867.56;5029436;28;19979;-43
2021/08/16 08:16:29;;;;;;;;;;;;;;;17.42;90.13;100871.00;5043192;28;19924;-43
2021/08/16 08:18:56;;;;;;;;;;;;;;;17.42;89.42;100880.81;5036368;28;20272;-44
2021/08/16 08:21:22;;;;;;;;;;;;;;;17.43;88.61;100878.00;5019765;28;19972;-48
2021/08/16 08:23:49;;;;;;;;;;;;;;;17.32;86.79;100886.97;5027047;28;19986;-44
2021/08/16 08:26:15;;;;;;;;;;;;;;;17.22;87.72;100915.41;5036818;28;19926;-45
2021/08/16 08:28:42;;;;;;;;;;;;;;;16.81;87.27;100912.00;5027571;28;19971;-49
2021/08/16 08:31:09;;;;;;;;;;;;;;;16.52;84.11;100936.72;5021120;28;19925;-48
2021/08/16 08:33:37;;;;;;;;;;;;;;;16.23;85.92;100940.13;5022174;28;20037;-44
2021/08/16 08:36:04;;;;;;;;;;;;;;;16.01;86.04;100944.66;5028627;28;19925;-47
2021/08/16 08:38:31;;;;;;;;;;;;;;;15.73;85.72;100946.16;5070545;28;19977;-47
2021/08/16 08:40:58;;;;;;;;;;;;;;;15.65;86.71;100948.63;5075704;28;20364;-43
2021/08/16 08:43:24;;;;;;;;;;;;;;;15.77;85.96;100946.75;5065633;28;20319;-48
2021/08/16 08:45:51;;;;;;;;;;;;;;;15.81;85.28;100948.19;5081859;28;20330;-48
2021/08/16 08:48:18;;;;;;;;;;;;;;;15.88;85.94;100944.03;5068081;28;19935;-48
2021/08/16 08:50:46;;;;;;;;;;;;;;;15.88;85.35;100944.88;5045156;28;19925;-44
2021/08/16 08:53:13;;;;;;;;;;;;;;;16.02;86.12;100941.03;5084688;28;20398;-44
2021/08/16 08:55:39;;;;;;;;;;;;;;;16.14;86.84;100948.88;5069343;28;19928;-49
2021/08/16 08:58:14;;;;;;;;;;;;;;;16.29;86.62;100942.25;5080512;28;20019;-45
2021/08/16 09:00:41;;;;;;;;;;;;;;;16.41;87.35;100939.50;5077689;28;19939;-48
2021/08/16 09:03:08;;;;;;;;;;;;;;;16.53;84.96;100944.53;5076421;28;19932;-49
2021/08/16 09:05:58;;;;;;;;;;;;;;;16.68;87.01;100952.13;5079072;28;20452;-45
2021/08/16 09:08:25;;;;;;;;;;;;;;;16.78;87.03;100954.78;5087321;28;19930;-46
2021/08/16 09:10:52;;;;;;;;;;;;;;;16.91;86.97;100942.13;5078632;28;20288;-50
2021/08/16 09:13:25;;;;;;;;;;;;;;;17.04;87.18;100940.03;5075013;28;19924;-48
2021/08/16 09:15:53;;;;;;;;;;;;;;;17.20;87.76;100943.94;5063418;28;20407;-47
2021/08/16 09:18:30;;;;;;;;;;;;;;;17.23;84.00;100951.63;5080171;28;20363;-48
2021/08/16 09:20:57;;;;;;;;;;;;;;;17.31;86.16;100942.94;5058810;28;19924;-47
2021/08/16 09:23:23;;;;;;;;;;;;;;;17.43;85.61;100955.09;5083393;28;19932;-47
2021/08/16 09:25:54;;;;;;;;;;;;;;;17.55;84.42;100947.81;5063017;28;20041;-46
2021/08/16 09:28:27;;;;;;;;;;;;;;;17.62;82.98;100961.38;5083092;28;19924;-59
2021/08/16 09:30:54;;;;;;;;;;;;;;;17.71;82.72;100968.47;5084908;28;19931;-48
2021/08/16 09:33:22;;;;;;;;;;;;;;;17.63;82.42;100966.53;5059560;28;19943;-59
2021/08/16 09:35:48;;;;;;;;;;;;;;;17.72;81.74;100962.19;5081698;28;19977;-59
2021/08/16 09:38:15;;;;;;;;;;;;;;;17.72;82.24;100960.38;5065486;28;19924;-59
2021/08/16 09:40:42;;;;;;;;;;;;;;;17.67;81.02;100967.09;5085850;28;20047;-57
2021/08/16 09:43:08;;;;;;;;;;;;;;;17.58;82.42;100972.28;5079002;28;19935;-58
2021/08/16 09:45:39;;;;;;;;;;;;;;;17.49;80.46;100966.97;5060180;28;19966;-58
2021/08/16 09:48:07;;;;;;;;;;;;;;;17.51;80.52;100971.19;5065206;28;19932;-57
2021/08/16 09:50:38;;;;;;;;;;;;;;;17.37;77.66;100968.97;5079937;28;19960;-46
2021/08/16 09:53:09;;;;;;;;;;;;;;;17.38;78.15;100976.81;5064003;28;19943;-48
2021/08/16 09:55:38;;;;;;;;;;;;;;;17.27;78.52;100984.06;5078858;28;20449;-57
2021/08/16 09:58:06;;;;;;;;;;;;;;;17.20;77.21;100983.78;5061477;28;20011;-49
2021/08/16 10:00:33;;;;;;;;;;;;;;;17.17;79.99;100973.44;5082579;28;20704;-47
2021/08/16 10:03:00;;;;;;;;;;;;;;;17.25;78.20;100978.91;5065455;28;20418;-45
2021/08/16 10:05:27;;;;;;;;;;;;;;;17.43;78.60;100992.31;5082561;28;19924;-48
2021/08/16 10:07:55;;;;;;;;;;;;;;;17.56;80.51;100989.34;5079254;28;19947;-47
2021/08/16 10:10:22;;;;;;;;;;;;;;;17.65;78.05;100988.50;5061334;28;19932;-48
2021/08/16 10:12:49;;;;;;;;;;;;;;;17.66;75.54;100995.50;5042585;28;19933;-46
2021/08/16 10:15:15;;;;;;;;;;;;;;;17.81;76.92;100973.78;5082226;28;19928;-46
2021/08/16 10:17:43;;;;;;;;;;;;;;;17.94;77.00;100984.97;5061704;28;20073;-48
2021/08/16 10:20:09;;;;;;;;;;;;;;;17.90;77.08;100991.53;5054189;28;19932;-46
2021/08/16 10:22:40;;;;;;;;;;;;;;;17.98;76.10;100994.31;5064115;28;19928;-46
2021/08/16 10:25:13;;;;;;;;;;;;;;;18.02;74.83;101001.03;5082472;28;19934;-46
2021/08/16 10:27:40;;;;;;;;;;;;;;;17.98;74.55;101009.47;5064032;28;20287;-45
2021/08/16 10:30:08;;;;;;;;;;;;;;;18.41;75.45;101016.03;5056463;28;19928;-45
2021/08/16 10:32:35;;;;;;;;;;;;;;;18.80;72.72;101015.00;5072597;28;19924;-47
2021/08/16 10:35:05;;;;;;;;;;;;;;;19.20;71.08;101019.09;5079334;28;19974;-47
2021/08/16 10:37:36;;;;;;;;;;;;;;;19.48;69.59;101011.00;5061926;28;19924;-49
2021/08/16 10:40:12;;;;;;;;;;;;;;;19.81;69.76;101013.94;5062574;28;19933;-47
2021/08/16 10:42:39;;;;;;;;;;;;;;;19.81;66.59;101032.63;5055392;28;19931;-48
2021/08/16 10:45:07;;;;;;;;;;;;;;;19.76;62.10;101020.56;5043424;28;20362;-52
2021/08/16 10:47:34;;;;;;;;;;;;;;;20.14;63.95;101025.66;5080258;28;19924;-51
2021/08/16 10:50:11;;;;;;;;;;;;;;;20.18;60.81;101015.50;5056590;28;20001;-49
2021/08/16 10:52:39;;;;;;;;;;;;;;;20.28;62.61;101008.22;5077760;28;19924;-50
2021/08/16 10:55:13;;;;;;;;;;;;;;;20.47;61.90;101023.16;5080072;28;19924;-52
2021/08/16 10:57:40;;;;;;;;;;;;;;;20.48;61.44;101007.94;5079083;28;19924;-48
2021/08/16 11:00:08;;;;;;;;;;;;;;;20.62;62.47;101014.53;5085320;28;19985;-47
2021/08/16 11:02:36;;;;;;;;;;;;;;;20.53;60.25;101019.84;5064750;28;19924;-50
2021/08/16 11:05:04;;;;;;;;;;;;;;;20.33;59.93;101021.94;5079378;28;19932;-52
2021/08/16 11:07:31;;;;;;;;;;;;;;;20.44;60.67;101026.97;5073337;28;19931;-48
2021/08/16 11:10:02;;;;;;;;;;;;;;;20.30;61.47;101021.41;5072885;28;19931;-46
2021/08/16 11:12:31;;;;;;;;;;;;;;;20.27;59.25;101027.88;5055287;28;19936;-50
2021/08/16 11:14:58;;;;;;;;;;;;;;;20.16;60.17;101021.00;5055458;28;19925;-48
2021/08/16 11:17:26;;;;;;;;;;;;;;;20.15;60.61;101030.03;5051915;28;19924;-46
2021/08/16 11:19:56;;;;;;;;;;;;;;;20.24;59.52;101034.38;5036762;28;19924;-50
2021/08/16 11:22:23;;;;;;;;;;;;;;;20.32;59.35;101043.47;5073120;28;19924;-58
2021/08/16 11:24:50;;;;;;;;;;;;;;;20.23;59.22;101053.25;5055185;28;19936;-58
2021/08/16 11:27:26;;;;;;;;;;;;;;;20.12;57.53;101053.50;5072675;28;19931;-58
2021/08/16 11:30:00;;;;;;;;;;;;;;;19.65;57.72;101055.50;5072864;28;19931;-57
2021/08/16 11:32:28;;;;;;;;;;;;;;;19.59;59.67;101064.09;5038447;28;20061;-57
2021/08/16 11:34:55;;;;;;;;;;;;;;;19.79;59.10;101070.09;5055145;28;19950;-48
2021/08/16 11:37:23;;;;;;;;;;;;;;;19.46;59.74;101072.50;5049027;28;20004;-46
2021/08/16 11:39:50;;;;;;;;;;;;;;;19.50;60.72;101097.03;5068130;28;19974;-57
2021/08/16 11:42:38;;;;;;;;;;;;;;;19.07;60.80;101096.75;5051212;28;19925;-58
2021/08/16 11:45:05;;;;;;;;;;;;;;;18.71;63.28;101105.47;5067460;28;20257;-47
2021/08/16 11:47:36;;;;;;;;;;;;;;;18.26;68.04;101118.66;5064432;28;19925;-56
2021/08/16 11:50:08;;;;;;;;;;;;;;;17.77;68.98;101134.66;5051374;28;19925;-56
2021/08/16 11:52:36;;;;;;;;;;;;;;;17.60;70.94;101134.38;5052646;28;19929;-57
2021/08/16 11:55:06;;;;;;;;;;;;;;;17.68;72.87;101146.94;5067677;28;19925;-55
2021/08/16 11:57:33;;;;;;;;;;;;;;;17.79;71.05;101153.94;5050009;28;19925;-57
2021/08/16 12:00:00;;;;;;;;;;;;;;;17.60;71.98;101150.31;5048105;28;20304;-56
2021/08/16 12:02:29;;;;;;;;;;;;;;;17.67;72.20;101154.09;5052430;28;19925;-57
2021/08/16 12:04:56;;;;;;;;;;;;;;;17.69;72.44;101154.78;5067588;28;19924;-45
2021/08/16 12:07:26;;;;;;;;;;;;;;;17.53;72.93;101157.16;5067715;28;19929;-46
2021/08/16 12:09:54;;;;;;;;;;;;;;;17.46;71.38;101162.19;5051285;28;19924;-57
2021/08/16 12:12:22;;;;;;;;;;;;;;;17.23;69.10;101164.22;5051520;28;19932;-57
2021/08/16 12:15:05;;;;;;;;;;;;;;;16.97;69.65;101170.00;5052427;28;19929;-57
2021/08/16 12:17:32;;;;;;;;;;;;;;;16.88;71.27;101178.78;5052093;28;19963;-56
2021/08/16 12:20:06;;;;;;;;;;;;;;;16.68;71.62;101183.97;5067573;28;19924;-56
2021/08/16 12:22:33;;;;;;;;;;;;;;;16.47;73.49;101183.13;5049409;28;19928;-56
2021/08/16 12:25:01;;;;;;;;;;;;;;;16.49;74.37;101183.88;5050540;28;19935;-56
2021/08/16 12:27:28;;;;;;;;;;;;;;;16.38;73.65;101180.28;5050835;28;19925;-56
2021/08/16 12:29:55;;;;;;;;;;;;;;;16.39;75.35;101171.38;5052559;28;20429;-56
2021/08/16 12:32:23;;;;;;;;;;;;;;;16.28;75.40;101184.72;5052275;28;19925;-56
2021/08/16 12:34:50;;;;;;;;;;;;;;;16.49;77.39;101190.00;5051209;28;19940;-56
2021/08/16 12:37:27;;;;;;;;;;;;;;;16.37;75.92;101188.38;5051050;28;19931;-56